Historyczne dane pomiarowe

Dodano dane terminowe – wersja testowa.

Dane z okresu 1951-2019

Wersja bazy: 1.34 [2019-03-16, lista zmian], aktualizacja planowana na 2019-04-15

Dane meteo z obszaru Polski uzyskane na podstawie danych udostępnionych przez Instytut Meteorologii i Gospodarki Wodnej – Państwowy Instytut Badawczy.

 

Wybierz Datę:    

       

TemperaturaWilgotnośćWiatrCiśnienieOpadyŚniegCzas trwania zjawisk
 Stacja t tx tn tng RH VA  wxwx mslp ppp RRR   cm mm wxwxwxwxwxwxwx
1963-02-14 -5.9 -4.2 -8.9 -9.1 97.8- 8.0 4.0---- 0.2-- 38---------
1963-02-15 -5.2 -3.4 -6.7 -7.2 92.8- 8.0 3.0---- 0.7-- 38---------
1963-02-16 -5.3 -2.9 -6.4 -7.0 94.3- 7.7 5.3---- 0.0-- 39---------
1963-02-17 -6.2 -5.6 -7.3 -8.2 97.5- 8.0 4.3---- 0.3-- 39---------
1963-02-18 -7.2 -5.8 -8.5 -8.1 92.5- 8.0 3.0---- 0.8-- 38---------
1963-02-19 -8.1 -7.0-13.6-19.0 91.5- 8.0 4.0---- 0.4-- 40---------
1963-02-20 -6.9 -6.1 -9.1-10.0 89.0- 5.3 4.0---- 0.0-- 40---------
1963-02-21-10.1 -6.2-12.1-12.5 87.5- 6.3 4.3---- 0.0-- 38---------
1963-02-22 -7.7 -4.0-16.0-20.7 93.0- 3.3 3.7---- 0.0-- 36---------
1963-02-23-12.0 -8.0-15.1-22.6 93.8- 1.7 1.3---- 0.0-- 35---------
1963-02-24 -8.6 -5.3-16.6-23.6 96.5- 8.0 3.0---- 0.0-- 34---------
1963-02-25 -7.4 -1.8 -9.5-11.1 97.0- 8.0 7.0---- 0.1-- 34---------
1963-02-26-16.9 -7.9-20.1-26.4 71.5- 0.3 4.0---- 0.0-- 34---------
1963-02-27-14.4-11.8-23.7-28.1 90.3- 8.0 2.0---- 0.2-- 34---------
1963-02-28-11.0 -6.8-13.5-13.4 74.0- 5.3 2.3---- 0.0-- 35---------
1963-03-01 -7.3 -3.4-14.7-19.3 84.5- 5.3 5.3---- 0.0-- 35---------
1963-03-02 -4.3 -1.4 -6.6 -6.1 98.3- 7.0 6.0---- 0.0-- 34---------
1963-03-03 -1.6 -0.2 -5.6 -7.9 93.8- 8.0 8.7---- 0.2-- 34---------
1963-03-04 -2.2 -0.6 -3.2 -3.4 90.5- 7.7 2.0---- 1.2-- 33---------
1963-03-05 -1.8 0.3 -5.6-12.2 96.8- 8.0 3.7---- 0.0-- 35---------
1963-03-06 -0.7 2.4 -8.6 -7.0 97.8- 8.0 8.0---- 5.2-- 34---------
1963-03-07 2.3 3.3 1.7 0.2 96.8- 8.0 8.0---- 1.3-- 30---------
1963-03-08 0.8 3.1 -0.7 0.1 91.8- 7.3 10.0---- 0.4-- 10---------
1963-03-09 -5.2 -0.6 -6.0 -7.5 76.5- 6.7 4.3---- 0.0-- 8---------
1963-03-10 -7.6 -3.4-11.9-13.5 66.5- 1.3 5.0---- 0.0-- 7---------
1963-03-11 -4.1 -2.0 -9.8-11.4 91.3- 7.3 4.3---- 0.3-- 5---------
1963-03-12 0.3 2.7 -2.2 -2.5 97.8- 7.0 3.0---- 0.1-- 5---------
1963-03-13 -0.3 3.9 -2.5 -3.0 97.8- 8.0 3.7---- 0.5-- 2---------
1963-03-14-10.4 -0.9-11.2-11.7 71.0- 2.3 11.3---- 0.0-- 2---------
1963-03-15-10.7 -5.7-16.4-18.1 70.0- 0.0 3.0---- 0.0-- 2---------
164.1 ms

 

Źródłem pochodzenia danych jest Instytut Meteorologii i Gospodarki Wodnej – Państwowy Instytut Badawczy. Dane Instytutu Meteorologii i Gospodarki Wodnej – Państwowego Instytutu Badawczego zostały przetworzone.

Dane źródłowe można odnaleźć na stronie https://dane.imgw.pl